createdAt,value
2018-06-19T00:02:40.177Z,15.28
2018-06-19T00:05:45.546Z,15.28
2018-06-19T00:08:50.075Z,15.20
2018-06-19T00:11:54.420Z,15.10
2018-06-19T00:14:58.773Z,15.07
2018-06-19T00:18:14.433Z,15.06
2018-06-19T00:21:26.879Z,15.10
2018-06-19T00:24:31.325Z,15.08
2018-06-19T00:27:35.948Z,15.12
2018-06-19T00:30:40.393Z,15.11
2018-06-19T00:33:44.683Z,15.15
2018-06-19T00:36:48.996Z,15.18
2018-06-19T00:39:53.330Z,15.22
2018-06-19T00:42:57.594Z,15.13
2018-06-19T00:46:02.270Z,14.96
2018-06-19T00:49:07.116Z,14.99
2018-06-19T00:52:11.493Z,14.95
2018-06-19T00:55:15.951Z,14.83
2018-06-19T00:58:20.302Z,14.64
2018-06-19T01:01:24.626Z,14.65
2018-06-19T01:04:28.987Z,14.66
2018-06-19T01:07:33.275Z,14.62
2018-06-19T01:10:37.593Z,14.14
2018-06-19T01:13:41.885Z,14.17
2018-06-19T01:16:46.246Z,14.27
2018-06-19T01:19:50.773Z,14.14
2018-06-19T01:22:55.614Z,14.13
2018-06-19T01:28:57.806Z,13.93
2018-06-19T01:32:02.119Z,14.01
2018-06-19T01:35:07.001Z,13.99
2018-06-19T01:38:11.557Z,13.83
2018-06-19T01:41:15.819Z,13.72
2018-06-19T01:44:20.119Z,13.72
2018-06-19T01:47:24.575Z,13.70
2018-06-19T01:50:28.894Z,13.75
2018-06-19T01:53:33.707Z,13.77
2018-06-19T01:56:38.089Z,13.79
2018-06-19T01:59:42.578Z,13.81
2018-06-19T02:02:46.882Z,13.80
2018-06-19T02:05:51.186Z,13.79
2018-06-19T02:08:55.457Z,13.71
2018-06-19T02:11:59.752Z,13.72
2018-06-19T02:15:04.067Z,13.69
2018-06-19T02:18:08.369Z,13.63
2018-06-19T02:21:12.711Z,13.66
2018-06-19T02:24:17.060Z,13.68
2018-06-19T02:27:21.369Z,13.55
2018-06-19T02:30:25.685Z,13.60
2018-06-19T02:33:30.413Z,13.57
2018-06-19T02:36:34.737Z,13.51
2018-06-19T02:39:39.018Z,13.53
2018-06-19T02:42:43.405Z,13.52
2018-06-19T02:45:47.706Z,13.56
2018-06-19T02:48:52.187Z,13.61
2018-06-19T02:51:56.506Z,13.71
2018-06-19T02:55:00.901Z,13.82
2018-06-19T02:58:05.304Z,13.92
2018-06-19T03:01:09.616Z,14.06
2018-06-19T03:04:14.054Z,14.22
2018-06-19T03:07:18.342Z,14.26
2018-06-19T03:10:22.621Z,14.26
2018-06-19T03:13:27.282Z,14.27
2018-06-19T03:16:32.111Z,14.32
2018-06-19T03:19:36.403Z,14.33
2018-06-19T03:22:40.811Z,14.24
2018-06-19T03:25:45.733Z,14.11
2018-06-19T03:28:50.104Z,14.05
2018-06-19T03:31:54.522Z,14.03
2018-06-19T03:34:58.945Z,14.17
2018-06-19T03:38:03.358Z,14.22
2018-06-19T03:41:07.685Z,14.35
2018-06-19T03:44:12.313Z,14.39
2018-06-19T03:47:16.667Z,14.56
2018-06-19T03:50:21.058Z,14.70
2018-06-19T03:53:25.649Z,14.75
2018-06-19T03:56:29.991Z,14.90
2018-06-19T03:59:34.520Z,14.83
2018-06-19T04:02:39.554Z,14.97
2018-06-19T04:05:43.854Z,15.06
2018-06-19T04:08:48.255Z,15.04
2018-06-19T04:11:52.890Z,15.17
2018-06-19T04:14:57.615Z,15.24
2018-06-19T04:18:02.040Z,15.29
2018-06-19T04:21:07.417Z,15.28
2018-06-19T04:24:11.772Z,15.36
2018-06-19T04:27:16.070Z,15.46
2018-06-19T04:30:20.387Z,15.44
2018-06-19T04:33:24.696Z,15.35
2018-06-19T04:36:29.163Z,15.58
2018-06-19T04:39:33.517Z,15.67
2018-06-19T04:42:37.845Z,15.76
2018-06-19T04:45:42.266Z,16.00
2018-06-19T04:48:47.094Z,16.09
2018-06-19T04:51:51.457Z,16.11
2018-06-19T04:55:05.991Z,16.15
2018-06-19T04:58:12.274Z,16.10
2018-06-19T05:01:16.618Z,16.34
2018-06-19T05:04:20.980Z,16.85
2018-06-19T05:07:25.311Z,17.07
2018-06-19T05:10:29.432Z,16.68
2018-06-19T05:13:34.661Z,16.39
2018-06-19T05:16:40.371Z,16.43
2018-06-19T05:19:44.778Z,16.01
2018-06-19T05:22:50.174Z,16.14
2018-06-19T05:25:54.847Z,16.71
2018-06-19T05:28:59.653Z,16.97
2018-06-19T05:32:04.101Z,17.19
2018-06-19T05:35:10.626Z,17.33
2018-06-19T05:38:15.199Z,17.77
2018-06-19T05:41:19.810Z,17.69
2018-06-19T05:44:24.371Z,17.33
2018-06-19T05:47:29.124Z,17.50
2018-06-19T05:50:33.575Z,17.77
2018-06-19T05:53:38.037Z,17.49
2018-06-19T05:56:42.462Z,17.36
2018-06-19T05:59:47.699Z,17.61
2018-06-19T06:02:53.291Z,17.89
2018-06-19T06:05:57.884Z,19.22
2018-06-19T06:09:02.239Z,20.24
2018-06-19T06:12:06.945Z,20.81
2018-06-19T06:15:11.673Z,21.54
2018-06-19T06:18:16.782Z,21.80
2018-06-19T06:21:21.364Z,22.80
2018-06-19T06:24:25.775Z,23.42
2018-06-19T06:32:54.155Z,19.86
2018-06-19T06:35:59.805Z,20.59
2018-06-19T06:39:05.202Z,21.19
2018-06-19T06:42:09.514Z,18.69
2018-06-19T06:45:14.255Z,19.46
2018-06-19T06:48:19.400Z,20.15
2018-06-19T06:51:23.797Z,20.57
2018-06-19T06:54:28.847Z,20.07
2018-06-19T06:57:33.397Z,20.19
2018-06-19T07:00:37.715Z,20.84
2018-06-19T07:03:42.503Z,21.89
2018-06-19T07:06:46.775Z,22.90
2018-06-19T07:09:51.120Z,21.70
2018-06-19T07:12:55.405Z,21.86
2018-06-19T07:15:59.949Z,20.77
2018-06-19T07:19:04.403Z,21.92
2018-06-19T07:22:08.775Z,22.88
2018-06-19T07:25:13.375Z,22.47
2018-06-19T07:28:17.757Z,20.83
2018-06-19T07:31:22.073Z,20.55
2018-06-19T07:34:26.562Z,20.53
2018-06-19T07:37:30.837Z,21.05
2018-06-19T07:40:35.137Z,22.10
2018-06-19T07:43:39.425Z,21.13
2018-06-19T07:46:43.873Z,20.66
2018-06-19T07:49:48.223Z,21.67
2018-06-19T07:52:52.674Z,21.55
2018-06-19T07:55:57.074Z,19.94
2018-06-19T07:59:01.402Z,20.04
2018-06-19T08:02:05.929Z,19.68
2018-06-19T08:05:10.394Z,20.25
2018-06-19T08:08:14.719Z,21.38
2018-06-19T08:11:19.051Z,21.47
2018-06-19T08:14:23.729Z,21.56
2018-06-19T08:17:28.289Z,20.32
2018-06-19T08:20:32.695Z,20.65
2018-06-19T08:23:37.143Z,20.82
2018-06-19T08:26:41.589Z,20.40
2018-06-19T08:29:46.109Z,20.56
2018-06-19T08:32:50.453Z,20.45
2018-06-19T08:35:54.837Z,20.94
2018-06-19T08:38:59.193Z,21.39
2018-06-19T08:42:03.732Z,21.93
2018-06-19T08:45:08.097Z,22.48
2018-06-19T08:48:12.422Z,23.27
2018-06-19T08:51:17.102Z,23.30
2018-06-19T08:54:21.624Z,23.38
2018-06-19T08:57:28.914Z,22.48
2018-06-19T09:00:33.375Z,23.21
2018-06-19T09:03:37.777Z,24.33
2018-06-19T09:06:42.419Z,23.62
2018-06-19T09:09:48.217Z,24.46
2018-06-19T09:12:52.561Z,23.51
2018-06-19T09:15:57.149Z,22.19
2018-06-19T09:19:01.812Z,22.25
2018-06-19T09:22:06.242Z,21.35
2018-06-19T09:25:10.632Z,21.54
2018-06-19T09:28:14.966Z,22.07
2018-06-19T09:31:19.300Z,21.88
2018-06-19T09:34:23.986Z,23.25
2018-06-19T09:37:28.435Z,23.78
2018-06-19T09:40:32.920Z,22.42
2018-06-19T09:43:37.248Z,22.11
2018-06-19T09:46:42.087Z,21.94
2018-06-19T09:49:47.467Z,22.93
2018-06-19T09:52:51.958Z,22.48
2018-06-19T09:55:56.899Z,22.37
2018-06-19T09:59:01.325Z,21.69
2018-06-19T10:02:05.975Z,21.91
2018-06-19T10:05:10.366Z,22.66
2018-06-19T10:08:14.768Z,23.09
2018-06-19T10:11:19.278Z,22.28
2018-06-19T10:14:23.688Z,22.43
2018-06-19T10:17:29.027Z,23.07
2018-06-19T10:20:33.379Z,24.28
2018-06-19T10:23:37.919Z,24.93
2018-06-19T10:26:42.458Z,25.32
2018-06-19T10:29:47.841Z,22.99
2018-06-19T10:32:52.298Z,21.78
2018-06-19T10:35:56.808Z,22.31
2018-06-19T10:39:01.193Z,22.39
2018-06-19T10:42:05.514Z,22.82
2018-06-19T10:45:09.906Z,23.24
2018-06-19T10:48:14.329Z,23.28
2018-06-19T10:51:18.902Z,23.43
2018-06-19T10:54:23.378Z,22.91
2018-06-19T10:57:27.718Z,23.68
2018-06-19T11:00:32.013Z,24.27
2018-06-19T11:03:36.576Z,24.63
2018-06-19T11:06:40.919Z,24.41
2018-06-19T11:09:45.475Z,25.08
2018-06-19T11:12:49.892Z,25.25
2018-06-19T11:15:54.259Z,24.32
2018-06-19T11:18:58.795Z,22.73
2018-06-19T11:22:03.654Z,22.75
2018-06-19T11:25:07.992Z,22.86
2018-06-19T11:28:12.449Z,23.60
2018-06-19T11:31:17.782Z,23.27
2018-06-19T11:34:22.162Z,24.04
2018-06-19T11:37:26.563Z,24.84
2018-06-19T11:40:30.866Z,24.10
2018-06-19T11:43:35.689Z,23.88
2018-06-19T11:46:40.734Z,23.67
2018-06-19T11:49:45.079Z,23.30
2018-06-19T11:52:49.490Z,23.13
2018-06-19T11:55:57.164Z,22.78
2018-06-19T11:59:04.761Z,22.81
2018-06-19T12:02:09.166Z,23.25
2018-06-19T12:05:13.910Z,23.06
2018-06-19T12:08:19.077Z,22.67
2018-06-19T12:11:23.464Z,23.09
2018-06-19T12:14:27.849Z,23.25
2018-06-19T12:17:32.272Z,22.90
2018-06-19T12:20:36.673Z,23.09
2018-06-19T12:23:41.232Z,23.42
2018-06-19T12:26:45.564Z,22.67
2018-06-19T12:29:50.179Z,22.99
2018-06-19T12:32:54.632Z,23.08
2018-06-19T12:35:59.026Z,22.74
2018-06-19T12:39:03.552Z,22.56
2018-06-19T12:42:08.054Z,22.77
2018-06-19T12:45:12.461Z,22.79
2018-06-19T12:48:17.665Z,23.28
2018-06-19T12:52:04.557Z,23.23
2018-06-19T12:55:40.911Z,23.59
2018-06-19T12:58:46.390Z,23.46
2018-06-19T13:01:50.820Z,23.19
2018-06-19T13:05:12.784Z,23.88
2018-06-19T13:08:18.237Z,24.14
2018-06-19T13:15:07.898Z,23.33
2018-06-19T13:18:31.652Z,23.56
2018-06-19T13:21:36.082Z,23.24
2018-06-19T13:24:40.760Z,23.39
2018-06-19T13:27:45.474Z,23.13
2018-06-19T13:31:08.193Z,22.80
2018-06-19T13:34:12.643Z,22.96
2018-06-19T13:37:17.392Z,23.50
2018-06-19T13:42:34.840Z,23.42
2018-06-19T13:45:39.360Z,22.89
2018-06-19T13:48:43.847Z,23.47
2018-06-19T13:51:48.421Z,23.05
2018-06-19T13:54:53.034Z,23.34
2018-06-19T13:58:19.606Z,23.52
2018-06-19T14:01:24.736Z,23.83
2018-06-19T14:04:29.179Z,23.75
2018-06-19T14:08:05.031Z,23.25
2018-06-19T14:11:26.284Z,23.35
2018-06-19T14:14:30.918Z,23.83
2018-06-19T14:17:35.550Z,24.49
2018-06-19T14:20:40.744Z,24.01
2018-06-19T14:23:45.066Z,24.46
2018-06-19T14:26:49.582Z,25.08
2018-06-19T14:29:54.536Z,23.75
2018-06-19T14:33:00.366Z,23.87
2018-06-19T14:36:04.703Z,23.76
2018-06-19T14:39:09.346Z,24.01
2018-06-19T14:42:13.639Z,23.81
2018-06-19T14:45:17.911Z,24.17
2018-06-19T14:48:22.296Z,24.15
2018-06-19T14:51:26.817Z,23.89
2018-06-19T14:54:31.189Z,23.67
2018-06-19T14:57:35.909Z,23.38
2018-06-19T15:00:40.536Z,23.57
2018-06-19T15:03:44.822Z,23.67
2018-06-19T15:06:49.190Z,24.03
2018-06-19T15:09:53.563Z,24.18
2018-06-19T15:12:57.794Z,24.37
2018-06-19T15:16:02.694Z,24.72
2018-06-19T15:19:07.182Z,25.00
2018-06-19T15:22:11.509Z,25.09
2018-06-19T15:25:16.171Z,24.87
2018-06-19T15:28:20.666Z,24.73
2018-06-19T15:31:25.145Z,25.16
2018-06-19T15:35:00.831Z,25.85
2018-06-19T15:38:05.925Z,25.44
2018-06-19T15:41:10.675Z,25.34
2018-06-19T15:44:15.133Z,24.90
2018-06-19T15:47:19.630Z,24.42
2018-06-19T15:50:24.111Z,24.17
2018-06-19T15:53:28.592Z,23.89
2018-06-19T15:57:35.805Z,23.54
2018-06-19T16:00:39.995Z,23.41
2018-06-19T16:03:45.115Z,23.22
2018-06-19T16:06:49.551Z,23.26
2018-06-19T16:09:54.057Z,23.13
2018-06-19T16:12:58.447Z,23.01
2018-06-19T16:16:02.892Z,23.06
2018-06-19T16:19:07.458Z,22.97
2018-06-19T16:22:11.764Z,22.98
2018-06-19T16:25:16.154Z,22.96
2018-06-19T16:28:20.553Z,22.97
2018-06-19T16:31:26.362Z,23.03
2018-06-19T16:34:30.766Z,23.16
2018-06-19T16:37:35.406Z,23.50
2018-06-19T16:40:39.943Z,23.48
2018-06-19T16:43:44.598Z,24.17
2018-06-19T16:46:49.050Z,24.88
2018-06-19T16:49:53.498Z,25.26
2018-06-19T16:52:58.117Z,25.97
2018-06-19T16:56:02.546Z,26.07
2018-06-19T16:59:06.981Z,25.37
2018-06-19T17:02:11.757Z,24.60
2018-06-19T17:05:16.185Z,23.98
2018-06-19T17:08:20.570Z,23.63
2018-06-19T17:11:25.019Z,23.42
2018-06-19T17:14:29.466Z,23.27
2018-06-19T17:17:34.063Z,23.10
2018-06-19T17:20:38.736Z,23.02
2018-06-19T17:23:43.250Z,23.04
2018-06-19T17:26:47.721Z,22.78
2018-06-19T17:29:52.131Z,22.69
2018-06-19T17:32:56.481Z,22.70
2018-06-19T17:36:01.026Z,22.66
2018-06-19T17:39:09.832Z,22.67
2018-06-19T17:42:15.998Z,22.69
2018-06-19T17:45:21.274Z,22.65
2018-06-19T17:48:25.989Z,22.50
2018-06-19T17:51:30.630Z,22.38
2018-06-19T17:54:35.426Z,22.36
2018-06-19T17:57:40.060Z,22.27
2018-06-19T18:00:44.749Z,22.33
2018-06-19T18:03:50.724Z,22.33
2018-06-19T18:06:55.302Z,22.47
2018-06-19T18:09:59.720Z,22.56
2018-06-19T18:13:04.373Z,22.54
2018-06-19T18:16:08.922Z,22.51
2018-06-19T18:19:13.371Z,22.57
2018-06-19T18:22:19.256Z,22.58
2018-06-19T18:25:24.297Z,22.56
2018-06-19T18:28:28.947Z,22.47
2018-06-19T18:31:33.858Z,22.43
2018-06-19T18:34:38.317Z,22.37
2018-06-19T18:37:42.817Z,22.41
2018-06-19T18:40:47.599Z,22.29
2018-06-19T18:43:52.166Z,22.21
2018-06-19T18:46:56.855Z,22.06
2018-06-19T18:50:01.296Z,21.96
2018-06-19T18:53:06.238Z,21.81
2018-06-19T18:56:10.901Z,21.77
2018-06-19T18:59:15.372Z,21.66
2018-06-19T19:02:19.785Z,21.55
2018-06-19T19:05:24.131Z,21.48
2018-06-19T19:08:28.538Z,21.33
2018-06-19T19:11:33.163Z,21.22
2018-06-19T19:14:42.935Z,21.12
2018-06-19T19:17:53.214Z,20.98
2018-06-19T19:20:58.527Z,20.80
2018-06-19T19:24:02.761Z,20.71
2018-06-19T19:27:12.617Z,20.50
2018-06-19T19:30:17.372Z,20.33
2018-06-19T19:33:21.761Z,20.26
2018-06-19T19:36:31.696Z,20.16
2018-06-19T19:39:36.260Z,20.08
2018-06-19T19:42:42.545Z,19.99
2018-06-19T19:45:48.361Z,19.93
2018-06-19T19:48:57.256Z,19.86
2018-06-19T19:52:01.818Z,19.74
2018-06-19T19:55:06.193Z,19.59
2018-06-19T19:58:15.780Z,19.49
2018-06-19T20:01:20.421Z,19.44
2018-06-19T20:04:24.793Z,19.29
2018-06-19T20:07:29.202Z,19.25
2018-06-19T20:10:33.647Z,19.08
2018-06-19T20:13:38.240Z,19.02
2018-06-19T20:16:42.803Z,18.94
2018-06-19T20:19:47.294Z,18.85
2018-06-19T20:22:51.718Z,18.77
2018-06-19T20:25:56.037Z,18.69
2018-06-19T20:29:01.790Z,18.62
2018-06-19T20:32:06.275Z,18.54
2018-06-19T20:35:10.704Z,18.44
2018-06-19T20:38:15.154Z,18.36
2018-06-19T20:41:19.604Z,18.34
2018-06-19T20:44:25.033Z,18.27
2018-06-19T20:47:29.707Z,18.22
2018-06-19T20:50:34.035Z,18.05
2018-06-19T20:53:38.515Z,18.00
2018-06-19T20:56:43.486Z,18.02
2018-06-19T20:59:48.082Z,18.00
2018-06-19T21:02:52.832Z,17.91
2018-06-19T21:05:57.161Z,17.82
2018-06-19T21:09:01.684Z,17.81
2018-06-19T21:12:06.093Z,17.75
2018-06-19T21:15:10.978Z,17.74
2018-06-19T21:18:15.402Z,17.68
2018-06-19T21:21:20.352Z,17.63
2018-06-19T21:24:24.292Z,17.55
2018-06-19T21:27:28.770Z,17.47
2018-06-19T21:30:34.394Z,17.39
2018-06-19T21:33:38.855Z,17.32
2018-06-19T21:36:44.328Z,17.25
2018-06-19T21:39:48.758Z,17.18
2018-06-19T21:42:54.201Z,17.11
2018-06-19T21:45:58.533Z,17.13
2018-06-19T21:49:02.846Z,17.10
2018-06-19T21:52:08.524Z,17.06
2018-06-19T21:55:12.828Z,16.98
2018-06-19T21:58:17.193Z,16.97
2018-06-19T22:01:21.725Z,16.92
2018-06-19T22:04:26.196Z,16.86
2018-06-19T22:07:30.922Z,16.83
2018-06-19T22:10:35.968Z,16.79
2018-06-19T22:13:40.401Z,16.75
2018-06-19T22:16:45.638Z,16.69
2018-06-19T22:19:50.173Z,16.67
2018-06-19T22:22:54.514Z,16.65
2018-06-19T22:25:58.830Z,16.63
2018-06-19T22:29:03.151Z,16.65
2018-06-19T22:32:07.567Z,16.64
2018-06-19T22:35:11.846Z,16.57
2018-06-19T22:38:16.806Z,16.55
2018-06-19T22:41:22.429Z,16.50
2018-06-19T22:44:26.785Z,16.44
2018-06-19T22:47:31.067Z,16.39
2018-06-19T22:50:35.850Z,16.35
2018-06-19T22:53:40.265Z,16.30
2018-06-19T22:56:44.782Z,16.30
2018-06-19T22:59:49.341Z,16.29
2018-06-19T23:03:02.062Z,16.23
2018-06-19T23:06:06.565Z,16.17
2018-06-19T23:09:11.370Z,16.12
2018-06-19T23:12:15.760Z,16.09
2018-06-19T23:15:20.122Z,16.07
2018-06-19T23:18:25.729Z,16.05
2018-06-19T23:21:30.035Z,16.05
2018-06-19T23:24:34.516Z,16.01
2018-06-19T23:27:38.824Z,15.95
2018-06-19T23:30:43.441Z,16.03
2018-06-19T23:33:47.796Z,15.96
2018-06-19T23:36:52.102Z,15.99
2018-06-19T23:39:56.540Z,15.97
2018-06-19T23:43:01.533Z,15.93
2018-06-19T23:46:05.841Z,15.85
2018-06-19T23:49:10.173Z,15.78
2018-06-19T23:52:14.881Z,15.75
2018-06-19T23:55:19.234Z,15.73
2018-06-19T23:58:23.639Z,15.73
